M I D A S
Marine Information and Data Acquisition System
Tripno 1504 of the Zeeleeuw from 2008-06-16 07:05:14 to 2008-06-16 11:18:40
Back to CruiseResearch ActivitiesStationsMapUnderway DataData graphs

EquipmentUnitsComment
TimeDGPSUTC
LatitudeDGPSDM.mWGS84
LongitudeDGPSDM.mWGS84
TemperatureSBE03/SBE38deg celciusITS90
ConductivitySBE21S/mITS90
SalinitySBE21 Practical Salinity Units
ChlorophylAChelsea fluorimeterg/lCalibrated in Aceton
Missing or incorrect values are displayed as -999
Sea surface data collected by the RV Zeeleeuw from 2008-06-16 07:05:52 to 2008-06-16 11:28:09
Time Latitude Longitude Temperature Conductivity Salinity ChlorophylA
2008-06-16 07:06:57 51°13.623 2°56.048 19.0016 0.268539 1.59902 -1.731873
2008-06-16 07:07:57 51°13.63 2°56.025 19.0076 0.271319 1.61666 -1.697049
2008-06-16 07:08:57 51°13.655 2°55.927 19.0078 0.272039 1.621349 -1.731873
2008-06-16 07:09:57 51°13.68 2°55.817 19.0173 0.268745 1.600764 -1.697049
2008-06-16 07:10:55 51°13.688 2°55.761 19.0239 0.26751 1.593172 -1.731873
2008-06-16 07:11:54 51°13.699 2°55.768 19.0186 0.273892 1.633662 -1.697049
2008-06-16 07:12:57 51°13.715 2°55.743 19.0369 0.25876 1.538536 -1.697049
2008-06-16 07:13:55 51°13.817 2°55.65 19.0047 0.267613 1.594207 -1.731873
2008-06-16 07:14:53 51°13.941 2°55.551 19.0323 0.267716 1.595034 -1.697049
2008-06-16 07:15:54 51°14.074 2°55.447 19.0545 0.267407 1.5933 -1.731873
2008-06-16 07:16:55 51°14.205 2°55.329 19.0658 0.266584 1.588236 -1.697049
2008-06-16 07:17:55 51°14.317 2°55.151 19.0423 0.255157 1.516611 -1.697049
2008-06-16 07:18:54 51°14.377 2°54.897 19.0782 0.254642 1.513523 -1.697049
2008-06-16 07:19:53 51°14.372 2°54.582 19.0922 0.256598 1.525855 -1.697049
2008-06-16 07:20:54 51°14.305 2°54.257 19.085 0.424723 2.602995 -1.697049
2008-06-16 07:21:54 51°14.234 2°53.933 18.9965 0.382919 2.332882 -1.697049
2008-06-16 07:22:54 51°14.161 2°53.608 19.0256 0.315586 1.899724 -1.697049
2008-06-16 07:23:53 51°14.087 2°53.288 19.0483 0.372932 2.267751 -1.697049
2008-06-16 07:24:53 51°14.006 2°52.966 19.0546 0.380036 2.313587 -1.697049
2008-06-16 07:25:53 51°13.929 2°52.64 19.0696 0.384463 2.342432 -1.697049
2008-06-16 07:26:53 51°13.838 2°52.324 19.0909 0.450671 2.773838 -1.731873
2008-06-16 07:27:53 51°13.727 2°52.025 19.1015 0.613495 3.855028 -1.697049
2008-06-16 07:28:53 51°13.628 2°51.714 19.1541 0.327837 1.979216 -1.697049
2008-06-16 07:29:53 51°13.513 2°51.42 19.1613 0.441095 2.712291 -1.697049
2008-06-16 07:30:53 51°13.396 2°51.128 19.174 0.249907 1.486172 -1.697049
2008-06-16 07:31:53 51°13.288 2°50.827 19.2135 0.719803 4.594496 -1.731873
2008-06-16 07:32:53 51°13.182 2°50.523 19.2443 0.850346 5.476081 -1.697049
2008-06-16 07:33:53 51°13.08 2°50.214 19.2611 1.218656 8.080879 -1.731873
2008-06-16 07:34:53 51°12.974 2°49.912 19.2879 1.020502 6.684083 -1.697049
2008-06-16 07:35:53 51°12.861 2°49.616 19.338 0.780383 5.010509 -1.697049
2008-06-16 07:36:53 51°12.753 2°49.315 19.3698 0.345545 2.101307 -1.731873
2008-06-16 07:37:53 51°12.643 2°49.014 19.3791 1.221441 8.121988 -1.697049
2008-06-16 07:38:53 51°12.537 2°48.71 19.403 1.679282 11.481001 -1.697049
2008-06-16 07:39:53 51°12.431 2°48.406 19.4373 0.564262 3.547296 -1.697049
2008-06-16 07:40:53 51°12.319 2°48.109 19.4671 1.458666 9.848733 -1.697049
2008-06-16 07:41:53 51°12.216 2°47.803 19.502 0.906201 5.890952 -1.731873
2008-06-16 07:42:53 51°12.124 2°47.489 19.528 1.108333 7.319509 -1.697049
2008-06-16 07:43:53 51°12.049 2°47.163 19.5767 1.285894 8.596393 -1.697049
2008-06-16 07:44:53 51°11.966 2°46.843 19.5911 1.257121 8.387014 -1.697049
2008-06-16 07:45:53 51°11.883 2°46.521 19.6021 1.02576 6.736321 -1.731873
2008-06-16 07:46:53 51°11.796 2°46.204 19.6302 1.586401 10.792445 -1.697049
2008-06-16 07:47:53 51°11.714 2°45.883 19.6995 0.920526 5.996417 -1.697049
2008-06-16 07:48:53 51°11.634 2°45.562 19.7185 1.015967 6.668465 -1.697049
2008-06-16 07:49:53 51°11.562 2°45.236 19.7742 0.580741 3.660404 -1.697049
2008-06-16 07:50:53 51°11.495 2°44.908 19.7933 0.919495 5.990683 -1.697049
2008-06-16 07:51:53 51°11.424 2°44.582 19.8264 0.928049 6.050997 -1.697049
2008-06-16 07:52:53 51°11.358 2°44.253 19.8303 0.880334 5.718001 -1.697049
2008-06-16 07:53:53 51°11.287 2°43.927 19.8757 1.50953 10.236243 -1.697049
2008-06-16 07:54:53 51°11.218 2°43.6 19.9086 0.970203 6.349806 -1.731873
2008-06-16 07:55:53 51°11.163 2°43.268 19.9627 1.429678 9.65195 -1.697049
2008-06-16 07:56:53 51°11.109 2°42.936 19.9304 1.522221 10.331583 -1.697049
2008-06-16 07:57:53 51°11.049 2°42.607 19.9755 1.108745 7.334206 -1.697049
2008-06-16 07:58:53 51°10.982 2°42.282 20.0481 0.576622 3.635513 -1.697049
2008-06-16 07:59:53 51°10.908 2°41.963 20.0461 1.303839 8.739071 -1.731873
2008-06-16 08:00:53 51°10.843 2°41.641 20.0886 0.801093 5.171331 -1.697049
2008-06-16 08:01:53 51°10.785 2°41.315 20.1314 1.055242 6.955954 -1.697049
2008-06-16 08:02:53 51°10.729 2°40.989 20.169 0.886105 5.763803 -1.697049
2008-06-16 08:03:53 51°10.674 2°40.664 20.2004 0.726191 4.655813 -1.697049
2008-06-16 08:04:53 51°10.615 2°40.343 20.2138 1.042665 6.868878 -1.697049
2008-06-16 08:05:53 51°10.561 2°40.021 20.2364 0.762662 4.908538 -1.731873
2008-06-16 08:06:53 51°10.502 2°39.702 20.2629 0.701466 4.487724 -1.697049
2008-06-16 08:07:53 51°10.427 2°39.393 20.2384 1.674948 11.475593 -1.731873
2008-06-16 08:08:53 51°10.365 2°39.073 20.3488 0.969997 6.357342 -1.697049
2008-06-16 08:09:53 51°10.32 2°38.745 20.362 0.674785 4.306749 -1.697049
2008-06-16 08:10:53 51°10.271 2°38.42 20.4274 0.716713 4.593796 -1.697049
2008-06-16 08:11:53 51°10.215 2°38.1 20.3548 1.535222 10.443928 -1.731873
2008-06-16 08:12:53 51°10.158 2°37.78 20.4577 0.990096 6.501517 -1.697049
2008-06-16 08:13:53 51°10.099 2°37.459 20.4731 0.755759 4.86444 -1.697049
2008-06-16 08:14:53 51°10.05 2°37.133 20.5093 0.99226 6.518197 -1.697049
2008-06-16 08:15:53 51°9.997 2°36.809 20.515 0.82098 5.317491 -1.697049
2008-06-16 08:16:53 51°9.939 2°36.489 20.5528 0.810882 5.247004 -1.697049
2008-06-16 08:17:53 51°9.887 2°36.167 20.5624 0.660981 4.215497 -1.697049
2008-06-16 08:18:53 51°9.833 2°35.846 16.9893 3.474205 25.404317 2.551485
2008-06-16 08:19:53 51°9.787 2°35.522 16.9541 4.111345 31.575253 4.22304
2008-06-16 08:20:53 51°9.732 2°35.203 16.9688 4.136347 31.819341 3.770327
2008-06-16 08:21:53 51°9.687 2°34.881 16.9944 4.133131 31.780951 3.839975
2008-06-16 08:22:53 51°9.641 2°34.559 16.8211 4.128878 31.797813 7.91439
2008-06-16 08:23:53 51°9.581 2°34.247 16.9352 4.140291 31.960473 9.411824
2008-06-16 08:24:53 51°9.537 2°34.022 17.0168 4.152012 31.97554 6.277659
2008-06-16 08:25:53 51°9.486 2°33.953 16.9419 4.159067 32.002898 3.909623
2008-06-16 08:26:53 51°9.464 2°33.945 16.9105 4.155851 32.022614 4.745401
2008-06-16 08:27:53 51°9.461 2°33.939 16.8907 4.154607 32.03819 6.730372
2008-06-16 08:28:53 51°9.459 2°33.934 16.9074 4.159068 32.081721 6.834844
2008-06-16 08:29:53 51°9.458 2°33.93 16.8933 4.158238 32.067512 7.183084
2008-06-16 08:30:53 51°9.457 2°33.926 16.878 4.151806 32.030123 7.949214
2008-06-16 08:31:53 51°9.457 2°33.922 16.858 4.149109 32.012036 8.053686
2008-06-16 08:32:53 51°9.456 2°33.917 16.9368 4.162492 32.145966 7.670621
2008-06-16 08:33:53 51°9.456 2°33.913 16.9736 4.166641 32.112194 6.382131
2008-06-16 08:34:53 51°9.455 2°33.909 16.9869 4.169753 32.113271 5.929418
2008-06-16 08:35:53 51°9.455 2°33.904 16.9999 4.170894 32.112812 6.033891
2008-06-16 08:36:53 51°9.454 2°33.9 17.0022 4.171205 32.110996 6.138363
2008-06-16 08:37:53 51°9.454 2°33.895 17.0118 4.172035 32.112355 5.68565
2008-06-16 08:38:53 51°9.454 2°33.891 17.009 4.172865 32.114995 5.720474
2008-06-16 08:39:53 51°9.454 2°33.889 17.0063 4.172554 32.114246 6.173187
2008-06-16 08:40:53 51°9.455 2°33.886 17.0114 4.171931 32.111464 6.242835
2008-06-16 08:41:53 51°9.455 2°33.884 17.0111 4.17162 32.10302 6.382131
2008-06-16 08:42:53 51°9.455 2°33.881 17.0054 4.171101 32.104334 6.103539
2008-06-16 08:43:53 51°9.456 2°33.88 16.9815 4.171931 32.110822 6.103539
2008-06-16 08:44:53 51°9.457 2°33.879 16.9961 4.168196 32.085789 6.660724
2008-06-16 08:45:53 51°9.459 2°33.879 16.9589 4.170894 32.114096 7.14826
2008-06-16 08:46:53 51°9.46 2°33.88 16.964 4.168819 32.118084 7.531325
2008-06-16 08:47:53 51°9.462 2°33.881 16.9476 4.168404 32.121581 7.287557
2008-06-16 08:48:53 51°9.463 2°33.882 16.9258 4.167782 32.127794 7.426853
2008-06-16 08:49:53 51°9.464 2°33.884 16.8832 4.166434 32.127762 7.600973
2008-06-16 08:50:53 51°9.466 2°33.887 16.9413 4.161869 32.112266 7.844741
2008-06-16 08:51:53 51°9.468 2°33.89 17.077 4.163943 32.04797 5.755298
2008-06-16 08:52:53 51°9.458 2°33.924 17.0512 4.168818 32.039947 5.267761
2008-06-16 08:53:53 51°9.478 2°34 17.043 4.165498 32.028076 3.944447
2008-06-16 08:54:53 51°9.561 2°34.019 16.9947 4.167054 32.031206 4.884697
2008-06-16 08:55:53 51°9.684 2°34.013 16.9289 4.168301 32.125186 7.461677
2008-06-16 08:56:53 51°9.76 2°34.026 16.954 4.166018 32.104913 6.6259
2008-06-16 08:57:53 51°9.81 2°34.057 16.9926 4.163736 32.078226 6.312483
2008-06-16 08:58:53 51°9.851 2°34.095 17.022 4.170997 32.102161 6.486603
2008-06-16 08:59:53 51°9.891 2°34.134 16.9829 4.202123 32.361277 7.392029
2008-06-16 09:00:53 51°9.932 2°34.167 17.02 4.205548 32.416609 7.740269
2008-06-16 09:01:53 51°9.975 2°34.202 16.9911 4.208245 32.418447 7.844741
2008-06-16 09:02:53 51°10.022 2°34.241 16.9417 4.207623 32.438358 8.924287
2008-06-16 09:03:53 51°10.07 2°34.283 16.9793 4.205548 32.427627 9.237704
2008-06-16 09:04:53 51°10.118 2°34.332 16.9193 4.205548 32.42633 9.237704
2008-06-16 09:05:53 51°10.165 2°34.384 16.9312 4.201606 32.427404 10.038657
2008-06-16 09:06:53 51°10.209 2°34.44 16.9456 4.200776 32.428691 10.421721
2008-06-16 09:07:53 51°10.254 2°34.495 16.9364 4.200879 32.421795 10.003833
2008-06-16 09:08:53 51°10.298 2°34.55 16.9368 4.20119 32.406962 9.55112
2008-06-16 09:09:53 51°10.343 2°34.605 16.9899 4.200464 32.386453 8.993935
2008-06-16 09:10:53 51°10.387 2°34.657 16.9862 4.200463 32.366393 7.91439
2008-06-16 09:11:53 51°10.43 2°34.708 16.9528 4.196936 32.336694 7.635797
2008-06-16 09:12:53 51°10.473 2°34.758 16.8975 4.189155 32.311739 8.43675
2008-06-16 09:13:53 51°10.513 2°34.81 16.917 4.18293 32.271062 7.949214
2008-06-16 09:14:53 51°10.548 2°34.877 16.9138 4.176082 32.209522 6.033891
2008-06-16 09:15:53 51°10.574 2°34.953 16.9507 4.171517 32.179245 5.755298
2008-06-16 09:16:53 51°10.597 2°35.033 16.9619 4.171206 32.161111 5.093641
2008-06-16 09:17:53 51°10.617 2°35.118 16.9635 4.171206 32.136032 4.188216
2008-06-16 09:18:53 51°10.633 2°35.204 16.9827 4.171205 32.132178 3.805151
2008-06-16 09:19:53 51°10.653 2°35.288 16.9787 4.171724 32.127647 3.874799
2008-06-16 09:20:53 51°10.675 2°35.37 16.9611 4.168301 32.110414 4.118568
2008-06-16 09:21:53 51°10.697 2°35.452 16.942 4.165707 32.095175 4.118568
2008-06-16 09:22:53 51°10.718 2°35.533 16.9578 4.164877 32.099593 4.39716
2008-06-16 09:23:53 51°10.735 2°35.615 16.8513 4.163217 32.077615 4.188216
2008-06-16 09:24:53 51°10.753 2°35.698 16.8817 4.155645 32.070239 5.093641
2008-06-16 09:25:53 51°10.768 2°35.781 16.9191 4.154711 32.043575 4.57128
2008-06-16 09:26:53 51°10.781 2°35.865 16.9544 4.155748 32.024925 3.979271
2008-06-16 09:27:53 51°10.794 2°35.951 16.9301 4.155955 32.008779 3.631031
2008-06-16 09:28:53 51°10.806 2°36.036 16.9609 4.152946 31.987401 3.596207
2008-06-16 09:29:53 51°10.816 2°36.121 16.9677 4.151286 31.973774 3.422087
2008-06-16 09:30:53 51°10.824 2°36.207 16.9388 4.150767 31.961647 3.491735
2008-06-16 09:31:53 51°10.832 2°36.292 16.9536 4.146514 31.950017 3.526559
2008-06-16 09:32:53 51°10.839 2°36.374 16.9455 4.145062 31.933697 3.805151
2008-06-16 09:33:53 51°10.836 2°36.451 16.9183 4.144232 31.907413 3.247966
2008-06-16 09:34:53 51°10.82 2°36.506 16.8993 4.136867 31.90156 5.407058
2008-06-16 09:35:53 51°10.808 2°36.548 16.8647 4.133339 31.852073 3.213142
2008-06-16 09:36:53 51°10.802 2°36.588 16.8829 4.128983 31.849691 4.954345
2008-06-16 09:37:53 51°10.8 2°36.623 16.8885 4.128256 31.835147 4.710577
2008-06-16 09:38:53 51°10.801 2°36.693 16.9002 4.127634 31.817041 4.04892
2008-06-16 09:39:53 51°10.874 2°36.764 16.8799 4.124003 31.789005 3.178318
2008-06-16 09:40:53 51°10.949 2°36.801 16.8721 4.120165 31.777012 3.596207
2008-06-16 09:41:53 51°11 2°36.846 16.8563 4.120995 31.775233 3.317614
2008-06-16 09:42:53 51°11.041 2°36.891 16.8528 4.120165 31.788483 4.292688
2008-06-16 09:43:53 51°11.083 2°36.936 16.8961 4.11892 31.766302 2.969374
2008-06-16 09:44:53 51°11.13 2°36.984 16.8964 4.121409 31.760344 2.551485
2008-06-16 09:45:53 51°11.178 2°37.028 16.869 4.120372 31.750792 2.481837
2008-06-16 09:46:53 51°11.223 2°37.068 16.8297 4.118401 31.747203 3.143494
2008-06-16 09:47:53 51°11.266 2°37.105 16.8405 4.113318 31.720662 3.213142
2008-06-16 09:48:53 51°11.313 2°37.139 16.8272 4.112281 31.736556 3.700679
2008-06-16 09:49:53 51°11.362 2°37.169 16.8732 4.112281 31.712375 3.317614
2008-06-16 09:50:53 51°11.41 2°37.197 16.9043 4.115393 31.732782 3.178318
2008-06-16 09:51:53 51°11.457 2°37.228 16.9008 4.117778 31.718338 2.342541
2008-06-16 09:52:53 51°11.502 2°37.269 16.9232 4.114044 31.694503 2.551485
2008-06-16 09:53:53 51°11.543 2°37.323 16.9123 4.118193 31.712381 2.272893
2008-06-16 09:54:53 51°11.581 2°37.386 16.9009 4.114459 31.71204 3.10867
2008-06-16 09:55:53 51°11.618 2°37.452 16.8167 4.114148 31.704283 3.491735
2008-06-16 09:56:53 51°11.653 2°37.519 16.8748 4.110206 31.690719 2.586309
2008-06-16 09:57:53 51°11.684 2°37.589 16.8829 4.110517 31.674982 2.412189
2008-06-16 09:58:53 51°11.709 2°37.662 16.8571 4.108339 31.670218 2.586309
2008-06-16 09:59:53 51°11.732 2°37.737 16.8766 4.105538 31.655656 2.342541
2008-06-16 10:00:53 51°11.754 2°37.811 16.8708 4.103775 31.63098 1.889828
2008-06-16 10:01:53 51°11.78 2°37.884 16.8519 4.101907 31.611762 1.924652
2008-06-16 10:02:53 51°11.804 2°37.956 16.8079 4.098173 31.610711 2.307717
2008-06-16 10:03:53 51°11.83 2°38.027 16.8293 4.095373 31.598666 2.098773
2008-06-16 10:04:53 51°11.855 2°38.097 16.8206 4.095684 31.584228 1.889828
2008-06-16 10:05:53 51°11.879 2°38.169 16.8333 4.094335 31.580867 1.959476
2008-06-16 10:06:53 51°11.9 2°38.24 16.7336 4.092883 31.57788 2.447013
2008-06-16 10:07:53 51°11.921 2°38.312 16.7686 4.088423 31.570561 3.073846
2008-06-16 10:08:53 51°11.941 2°38.383 16.7892 4.086142 31.56931 3.213142
2008-06-16 10:09:53 51°11.961 2°38.457 16.7645 4.085623 31.568016 3.178318
2008-06-16 10:10:53 51°11.982 2°38.53 16.7192 4.082926 31.565096 3.387263
2008-06-16 10:11:53 51°12.003 2°38.602 16.7091 4.0822 31.557566 3.039022
2008-06-16 10:12:53 51°12.026 2°38.674 16.7535 4.084689 31.550455 2.203245
2008-06-16 10:13:53 51°12.046 2°38.744 16.7053 4.0822 31.559472 2.342541
2008-06-16 10:14:53 51°12.066 2°38.816 16.7054 4.082408 31.555544 2.342541
2008-06-16 10:15:53 51°12.086 2°38.888 16.6932 4.079918 31.540435 2.377365
2008-06-16 10:16:53 51°12.107 2°38.961 16.7276 4.077637 31.549343 2.272893
2008-06-16 10:17:53 51°12.129 2°39.033 16.7373 4.082822 31.551502 1.785356
2008-06-16 10:18:53 51°12.15 2°39.106 16.6833 4.081267 31.567309 1.924652
2008-06-16 10:19:53 51°12.165 2°39.179 16.7126 4.080022 31.554032 1.750532
2008-06-16 10:20:53 51°12.166 2°39.253 16.71 4.078674 31.562743 1.855004
2008-06-16 10:21:53 51°12.156 2°39.324 16.7269 4.082823 31.557215 1.437116
2008-06-16 10:22:53 51°12.138 2°39.388 16.6969 4.082408 31.570792 1.715708
2008-06-16 10:23:53 51°12.124 2°39.441 16.6746 4.078778 31.551558 1.785356
2008-06-16 10:24:53 51°12.117 2°39.489 16.716 4.081267 31.563495 2.063949
2008-06-16 10:25:53 51°12.113 2°39.532 16.7754 4.084689 31.549186 1.82018
2008-06-16 10:26:53 51°12.112 2°39.57 16.774 4.086349 31.558405 1.889828
2008-06-16 10:27:53 51°12.112 2°39.619 16.7017 4.087282 31.567714 1.680884
2008-06-16 10:28:53 51°12.156 2°39.762 16.6813 4.081267 31.566037 2.272893
2008-06-16 10:29:53 51°12.251 2°40.012 16.6905 4.081267 31.56413 1.9943
2008-06-16 10:30:53 51°12.362 2°40.312 16.727 4.082615 31.570674 2.203245
2008-06-16 10:31:53 51°12.467 2°40.625 16.7299 4.085727 31.582884 1.959476
2008-06-16 10:32:53 51°12.57 2°40.939 16.7085 4.08749 31.603808 1.785356
2008-06-16 10:33:53 51°12.676 2°41.25 16.7121 4.087802 31.609036 1.611236
2008-06-16 10:34:53 51°12.787 2°41.557 16.7366 4.088839 31.611617 1.47194
2008-06-16 10:35:53 51°12.882 2°41.877 16.6782 4.08718 31.617671 1.889828
2008-06-16 10:36:53 51°12.978 2°42.197 16.6761 4.083653 31.613354 1.82018
2008-06-16 10:37:53 51°13.072 2°42.516 16.6644 4.083964 31.607121 1.82018
2008-06-16 10:38:53 51°13.163 2°42.839 16.6555 4.081475 31.59901 1.924652
2008-06-16 10:39:53 51°13.26 2°43.156 16.6337 4.079712 31.593342 1.889828
2008-06-16 10:40:53 51°13.358 2°43.471 16.622 4.078675 31.595219 1.9943
2008-06-16 10:41:53 51°13.445 2°43.794 16.6211 4.078467 31.597253 1.680884
2008-06-16 10:42:53 51°13.541 2°44.111 16.6216 4.079401 31.614249 1.576412
2008-06-16 10:43:53 51°13.637 2°44.427 16.733 4.080334 31.608917 1.82018
2008-06-16 10:44:53 51°13.732 2°44.746 16.7771 4.086557 31.576694 1.367467
2008-06-16 10:45:53 51°13.824 2°45.067 16.7113 4.084171 31.550428 1.506764
2008-06-16 10:46:53 51°13.916 2°45.39 16.8031 4.081059 31.524892 1.924652
2008-06-16 10:47:53 51°14.005 2°45.714 16.7798 4.079399 31.504263 1.82018
2008-06-16 10:48:53 51°14.098 2°46.038 16.8339 4.07608 31.463667 1.750532
2008-06-16 10:49:53 51°14.185 2°46.364 16.8074 4.075767 31.40043 1.785356
2008-06-16 10:50:53 51°14.221 2°46.714 16.8704 4.067987 31.307263 2.899726
2008-06-16 10:51:53 51°14.255 2°47.061 16.8 4.049007 31.200715 3.770327
2008-06-16 10:52:53 51°14.283 2°47.409 16.8092 4.037079 31.107659 3.596207
2008-06-16 10:53:53 51°14.315 2°47.756 16.8347 4.034382 31.063928 3.770327
2008-06-16 10:54:53 51°14.344 2°48.103 16.8866 4.030337 31.015537 4.292688
2008-06-16 10:55:54 51°14.381 2°48.457 16.8989 4.034277 30.99901 4.606104
2008-06-16 10:56:53 51°14.415 2°48.801 16.9658 4.03241 30.973729 5.128465
2008-06-16 10:57:53 51°14.449 2°49.152 17.0251 4.033032 30.94811 5.198113
2008-06-16 10:58:53 51°14.482 2°49.503 17.0445 4.031579 30.893734 5.476706
2008-06-16 10:59:54 51°14.518 2°49.862 17.1009 4.029608 30.841237 5.68565
2008-06-16 11:00:54 51°14.563 2°50.212 17.1321 4.0294 30.821054 5.616002
2008-06-16 11:01:53 51°14.608 2°50.556 17.103 4.026496 30.776707 5.755298
2008-06-16 11:02:53 51°14.651 2°50.905 17.0689 4.020169 30.753417 6.347307
2008-06-16 11:03:53 51°14.69 2°51.255 17.0651 4.000153 30.589593 6.521427
2008-06-16 11:04:54 51°14.729 2°51.609 17.0227 4.010525 30.704243 6.6259
2008-06-16 11:05:54 51°14.761 2°51.959 17.0508 4.008762 30.708797 6.904492
2008-06-16 11:06:54 51°14.781 2°52.31 17.0974 4.014258 30.704263 7.252733
2008-06-16 11:07:53 51°14.791 2°52.652 17.0781 4.013532 30.699911 7.14826
2008-06-16 11:08:54 51°14.79 2°53 17.0807 4.013013 30.698549 7.322381
2008-06-16 11:09:53 51°14.775 2°53.332 17.2654 4.01042 30.669126 6.347307
2008-06-16 11:10:54 51°14.739 2°53.668 17.3227 0.069994 0.405346 -1.522929
2008-06-16 11:11:54 51°14.697 2°53.998 17.3893 0.055895 0.321361 -1.453281
2008-06-16 11:12:54 51°14.629 2°54.318 17.4558 0.050029 0.286726 -1.522929
2008-06-16 11:13:53 51°14.538 2°54.613 17.5338 0.045913 0.262538 -1.522929
2008-06-16 11:14:53 51°14.433 2°54.902 17.5963 0.043134 0.246273 -1.557753
2008-06-16 11:15:53 51°14.322 2°55.142 17.6748 0.040973 0.233659 -1.522929
2008-06-16 11:16:54 51°14.204 2°55.335 17.7401 0.039327 0.224067 -1.557753
2008-06-16 11:17:57 51°14.083 2°55.442 17.8023 0.038092 0.216889 -1.557753
2008-06-16 11:18:56 51°13.998 2°55.506 17.84 0.036857 0.20972 -1.557753
2008-06-16 11:19:53 51°13.924 2°55.56 17.8903 2.705536 19.269763 -1.557753
2008-06-16 11:20:53 51°13.854 2°55.605 18.0606 0.234568 1.350085 -1.557753
2008-06-16 11:21:53 51°13.806 2°55.642 18.1192 0.084298 0.460833 -1.522929
2008-06-16 11:22:53 51°13.766 2°55.669 18.1826 0.07308 0.393234 -1.522929
2008-06-16 11:23:53 51°13.759 2°55.67 18.2499 0.070816 0.376567 -1.522929
2008-06-16 11:24:53 51°13.755 2°55.67 18.3347 0.070096 0.371301 -1.522929
2008-06-16 11:25:53 51°13.726 2°55.702 18.4296 0.069684 0.368758 -1.522929
2008-06-16 11:26:53 51°13.674 2°55.838 18.4741 0.069684 0.36772 -1.557753
2008-06-16 11:27:56 51°13.643 2°55.955 18.5302 0.069684 0.366069 -1.522929